createdAt,value
2018-07-17T00:02:39.713Z,99.900002
2018-07-17T00:07:42.110Z,99.900002
2018-07-17T00:12:44.624Z,99.900002
2018-07-17T00:17:46.615Z,99.900002
2018-07-17T00:22:48.939Z,99.900002
2018-07-17T00:27:51.351Z,99.900002
2018-07-17T00:32:53.495Z,99.900002
2018-07-17T00:37:55.773Z,99.900002
2018-07-17T00:42:58.153Z,99.900002
2018-07-17T00:48:00.543Z,99.900002
2018-07-17T00:53:02.696Z,99.900002
2018-07-17T00:58:05.029Z,99.900002
2018-07-17T01:03:07.408Z,99.900002
2018-07-17T01:08:09.734Z,99.900002
2018-07-17T01:13:11.906Z,99.900002
2018-07-17T01:18:14.232Z,99.900002
2018-07-17T01:23:16.571Z,99.900002
2018-07-17T01:28:18.722Z,99.900002
2018-07-17T01:33:21.100Z,99.900002
2018-07-17T01:38:23.521Z,99.900002
2018-07-17T01:43:25.666Z,99.900002
2018-07-17T01:48:28.004Z,99.900002
2018-07-17T01:53:31.398Z,99.900002
2018-07-17T01:58:32.671Z,99.900002
2018-07-17T02:03:34.867Z,99.900002
2018-07-17T02:08:37.238Z,99.900002
2018-07-17T02:13:39.495Z,99.900002
2018-07-17T02:18:41.692Z,99.900002
2018-07-17T02:23:44.036Z,99.900002
2018-07-17T02:28:46.547Z,99.900002
2018-07-17T02:33:48.741Z,99.900002
2018-07-17T02:38:50.823Z,99.900002
2018-07-17T02:43:53.221Z,99.900002
2018-07-17T02:48:55.470Z,99.900002
2018-07-17T02:53:57.865Z,99.900002
2018-07-17T02:59:00.015Z,99.900002
2018-07-17T03:04:02.502Z,97.199997
2018-07-17T03:09:04.925Z,99.199997
2018-07-17T03:14:07.085Z,99.599998
2018-07-17T03:19:09.309Z,99.400002
2018-07-17T03:24:11.669Z,97
2018-07-17T03:29:14.019Z,98.900002
2018-07-17T03:34:16.090Z,99.400002
2018-07-17T03:39:18.384Z,94.599998
2018-07-17T03:44:20.842Z,96.300003
2018-07-17T03:49:22.958Z,95
2018-07-17T03:54:25.299Z,96.199997
2018-07-17T03:59:27.649Z,97
2018-07-17T04:04:30.068Z,95.900002
2018-07-17T04:09:32.113Z,93.099998
2018-07-17T04:14:34.508Z,89.800003
2018-07-17T04:19:36.882Z,88.599998
2018-07-17T04:29:41.423Z,87
2018-07-17T04:34:43.708Z,91.099998
2018-07-17T04:39:46.139Z,87.800003
2018-07-17T04:44:48.262Z,86.900002
2018-07-17T04:49:50.595Z,85.800003
2018-07-17T04:54:52.848Z,83.800003
2018-07-17T04:59:55.147Z,83.400002
2018-07-17T05:09:59.749Z,82.599998
2018-07-17T05:15:02.199Z,82.5
2018-07-17T05:20:04.336Z,81.5
2018-07-17T05:25:06.652Z,82.400002
2018-07-17T05:30:09.045Z,80.400002
2018-07-17T05:35:11.330Z,79.400002
2018-07-17T05:40:13.491Z,81.400002
2018-07-17T05:45:15.809Z,80.099998
2018-07-17T05:50:18.061Z,80.400002
2018-07-17T06:00:22.636Z,79.099998
2018-07-17T06:05:24.943Z,80
2018-07-17T06:10:27.464Z,80.099998
2018-07-17T06:15:29.520Z,79.199997
2018-07-17T06:20:31.994Z,81.199997
2018-07-17T06:25:34.261Z,82.599998
2018-07-17T06:30:36.522Z,81.5
2018-07-17T06:35:38.711Z,80.900002
2018-07-17T06:40:41.089Z,81.300003
2018-07-17T06:45:43.401Z,81.800003
2018-07-17T06:50:45.712Z,81.800003
2018-07-17T06:55:47.937Z,80.900002
2018-07-17T07:00:50.299Z,80.099998
2018-07-17T07:05:52.622Z,78.099998
2018-07-17T07:10:54.810Z,77.300003
2018-07-17T07:15:57.058Z,77.699997
2018-07-17T07:20:59.345Z,76.800003
2018-07-17T07:26:01.717Z,73.400002
2018-07-17T07:31:04.224Z,73.599998
2018-07-17T07:36:06.293Z,73.699997
2018-07-17T07:41:08.570Z,72.300003
2018-07-17T07:46:10.883Z,71.199997
2018-07-17T07:51:13.171Z,70.300003
2018-07-17T07:56:15.520Z,69.5
2018-07-17T08:01:17.858Z,69.400002
2018-07-17T08:06:20.067Z,69.699997
2018-07-17T08:11:22.327Z,65.400002
2018-07-17T08:16:24.729Z,68.300003
2018-07-17T08:21:26.909Z,67.699997
2018-07-17T08:26:29.135Z,66.199997
2018-07-17T08:31:31.469Z,65.400002
2018-07-17T08:36:33.860Z,65.400002
2018-07-17T08:41:36.176Z,66.900002
2018-07-17T08:46:38.414Z,63.900002
2018-07-17T08:51:40.787Z,62.700001
2018-07-17T08:56:42.994Z,62.200001
2018-07-17T09:01:45.351Z,60.200001
2018-07-17T09:06:47.802Z,61.700001
2018-07-17T09:11:49.841Z,57.5
2018-07-17T09:16:52.103Z,57.099998
2018-07-17T09:21:54.571Z,59.200001
2018-07-17T09:26:56.755Z,56.299999
2018-07-17T09:31:59.108Z,55.400002
2018-07-17T09:37:01.420Z,54.900002
2018-07-17T09:42:03.724Z,55.700001
2018-07-17T09:47:05.930Z,53.099998
2018-07-17T09:52:08.193Z,56.700001
2018-07-17T09:57:10.616Z,50.599998
2018-07-17T10:02:12.814Z,49
2018-07-17T10:07:15.131Z,54.700001
2018-07-17T10:12:17.531Z,56
2018-07-17T10:17:19.716Z,50.799999
2018-07-17T10:22:22.034Z,46.900002
2018-07-17T10:27:24.224Z,49.299999
2018-07-17T10:32:26.607Z,48.5
2018-07-17T10:37:28.807Z,48.200001
2018-07-17T10:42:31.136Z,46
2018-07-17T10:47:33.634Z,49
2018-07-17T10:52:35.865Z,50
2018-07-17T10:57:38.038Z,48
2018-07-17T11:02:40.490Z,46.200001
2018-07-17T11:07:42.740Z,49
2018-07-17T11:12:44.999Z,46.799999
2018-07-17T11:17:47.174Z,48.200001
2018-07-17T11:22:49.773Z,48.599998
2018-07-17T11:27:51.815Z,42.700001
2018-07-17T11:32:54.113Z,39.700001
2018-07-17T11:37:56.364Z,37.299999
2018-07-17T11:42:58.770Z,40.099998
2018-07-17T11:48:01.048Z,36.5
2018-07-17T11:53:03.297Z,37.099998
2018-07-17T11:58:05.731Z,36.299999
2018-07-17T12:03:07.844Z,38.200001
2018-07-17T12:08:10.288Z,36.799999
2018-07-17T12:13:12.513Z,35.099998
2018-07-17T12:18:14.780Z,33.5
2018-07-17T12:23:17.066Z,35.5
2018-07-17T12:28:19.337Z,32.400002
2018-07-17T12:33:21.784Z,31.799999
2018-07-17T12:38:23.977Z,34.299999
2018-07-17T12:43:26.195Z,31.6
2018-07-17T12:48:28.645Z,33.599998
2018-07-17T12:53:30.918Z,33.900002
2018-07-17T12:58:33.142Z,29.700001
2018-07-17T13:03:35.519Z,29.6
2018-07-17T13:08:37.718Z,29
2018-07-17T13:13:40.126Z,32.200001
2018-07-17T13:18:42.372Z,35.200001
2018-07-17T13:23:44.613Z,34.299999
2018-07-17T13:28:46.844Z,33.700001
2018-07-17T13:33:49.207Z,33.599998
2018-07-17T13:43:53.735Z,34.599998
2018-07-17T13:48:56.183Z,30.4
2018-07-17T13:53:58.433Z,28.5
2018-07-17T13:59:00.721Z,33.400002
2018-07-17T14:04:02.854Z,32.400002
2018-07-17T14:09:05.399Z,33
2018-07-17T14:14:07.578Z,30.200001
2018-07-17T14:19:10.021Z,29.6
2018-07-17T14:24:12.043Z,32.700001
2018-07-17T14:29:14.580Z,30.1
2018-07-17T14:34:16.706Z,31.1
2018-07-17T14:39:19.017Z,32
2018-07-17T14:44:21.228Z,33.400002
2018-07-17T14:49:23.705Z,37.200001
2018-07-17T14:54:25.912Z,35.400002
2018-07-17T14:59:28.169Z,35.799999
2018-07-17T15:04:30.560Z,37.700001
2018-07-17T15:09:32.828Z,39.5
2018-07-17T15:14:35.066Z,34
2018-07-17T15:19:37.461Z,34.5
2018-07-17T15:24:39.798Z,35.400002
2018-07-17T15:29:42.216Z,40.5
2018-07-17T15:34:44.276Z,34.299999
2018-07-17T15:39:46.684Z,35.5
2018-07-17T15:44:48.897Z,34.299999
2018-07-17T15:49:51.092Z,35.299999
2018-07-17T15:54:53.506Z,34.700001
2018-07-17T15:59:55.864Z,33.900002
2018-07-17T16:04:58.034Z,34.700001
2018-07-17T16:10:00.355Z,34.599998
2018-07-17T16:15:02.656Z,34.299999
2018-07-17T16:20:04.866Z,35.400002
2018-07-17T16:25:07.297Z,34.799999
2018-07-17T16:30:09.512Z,35.5
2018-07-17T16:35:11.788Z,38.599998
2018-07-17T16:40:14.075Z,37
2018-07-17T16:45:16.527Z,38.700001
2018-07-17T16:50:18.657Z,35.299999
2018-07-17T16:55:21.074Z,36.299999
2018-07-17T17:00:23.330Z,36
2018-07-17T17:05:25.570Z,37.700001
2018-07-17T17:10:27.941Z,38.400002
2018-07-17T17:15:30.265Z,44
2018-07-17T17:20:32.474Z,47.799999
2018-07-17T17:25:34.998Z,47.5
2018-07-17T17:30:37.057Z,41.099998
2018-07-17T17:35:39.344Z,41.900002
2018-07-17T17:40:41.724Z,46.900002
2018-07-17T17:45:43.821Z,46
2018-07-17T17:50:46.341Z,45.900002
2018-07-17T17:55:48.437Z,45.200001
2018-07-17T18:00:50.941Z,48.200001
2018-07-17T18:05:53.121Z,50.400002
2018-07-17T18:10:55.345Z,49.599998
2018-07-17T18:15:57.603Z,50.200001
2018-07-17T18:21:00.075Z,47.5
2018-07-17T18:26:02.204Z,48.299999
2018-07-17T18:31:04.580Z,49
2018-07-17T18:36:06.929Z,51.299999
2018-07-17T18:41:09.111Z,52.099998
2018-07-17T18:46:11.413Z,55.700001
2018-07-17T18:51:13.640Z,53.200001
2018-07-17T18:56:16.105Z,56.599998
2018-07-17T19:01:18.268Z,55.700001
2018-07-17T19:06:20.659Z,56.599998
2018-07-17T19:11:23.008Z,59.799999
2018-07-17T19:16:25.213Z,59.599998
2018-07-17T19:21:27.434Z,60.299999
2018-07-17T19:26:29.795Z,59
2018-07-17T19:31:32.112Z,61.599998
2018-07-17T19:36:34.579Z,62.400002
2018-07-17T19:41:36.747Z,64.900002
2018-07-17T19:46:39.212Z,64.199997
2018-07-17T19:51:41.423Z,65
2018-07-17T19:56:51.106Z,66.300003
2018-07-17T20:01:45.929Z,68.199997
2018-07-17T20:06:48.347Z,71.199997
2018-07-17T20:11:50.656Z,72.400002
2018-07-17T20:16:52.976Z,74.300003
2018-07-17T20:21:55.034Z,74.800003
2018-07-17T20:26:57.371Z,74.300003
2018-07-17T20:31:59.616Z,75.400002
2018-07-17T20:37:01.929Z,77.900002
2018-07-17T20:42:04.284Z,76.5
2018-07-17T20:47:06.525Z,75.599998
2018-07-17T20:52:08.763Z,77.800003
2018-07-17T20:57:11.044Z,78
2018-07-17T21:02:13.468Z,79.599998
2018-07-17T21:07:16.672Z,81
2018-07-17T21:12:17.984Z,81.599998
2018-07-17T21:17:20.361Z,81.199997
2018-07-17T21:22:22.693Z,82.5
2018-07-17T21:27:24.886Z,83.699997
2018-07-17T21:32:27.100Z,83.699997
2018-07-17T21:37:29.397Z,84.699997
2018-07-17T21:42:31.663Z,85
2018-07-17T21:47:34.045Z,85
2018-07-17T21:52:36.374Z,86.199997
2018-07-17T21:57:38.665Z,85.5
2018-07-17T22:02:40.994Z,86.800003
2018-07-17T22:07:43.236Z,86.5
2018-07-17T22:12:45.522Z,86.5
2018-07-17T22:17:47.867Z,86.699997
2018-07-17T22:22:50.111Z,87.400002
2018-07-17T22:27:52.546Z,89.099998
2018-07-17T22:32:54.755Z,89.699997
2018-07-17T22:37:57.016Z,90
2018-07-17T22:42:59.263Z,89.599998
2018-07-17T22:48:01.516Z,90.5
2018-07-17T22:53:03.893Z,91.400002
2018-07-17T22:58:06.223Z,90.800003
2018-07-17T23:03:08.485Z,90.099998
2018-07-17T23:08:10.862Z,90.5
2018-07-17T23:13:12.982Z,90.400002
2018-07-17T23:18:15.338Z,90.900002
2018-07-17T23:23:17.733Z,90.599998
2018-07-17T23:28:19.869Z,90.5
2018-07-17T23:33:22.201Z,90.5
2018-07-17T23:38:24.579Z,90.800003
2018-07-17T23:43:26.844Z,91.300003
2018-07-17T23:48:29.107Z,91.400002
2018-07-17T23:53:31.294Z,91.199997
2018-07-17T23:58:33.782Z,91.300003
